createdAt,value
2019-03-19T00:01:46.818Z,101483.00
2019-03-19T00:04:17.204Z,101489.00
2019-03-19T00:06:47.521Z,101494.00
2019-03-19T00:09:17.817Z,101490.00
2019-03-19T00:11:48.129Z,101491.00
2019-03-19T00:14:25.431Z,101488.00
2019-03-19T00:16:55.804Z,101492.00
2019-03-19T00:19:34.373Z,101495.00
2019-03-19T00:22:05.024Z,101494.00
2019-03-19T00:24:35.577Z,101503.00
2019-03-19T00:27:06.004Z,101494.00
2019-03-19T00:29:36.346Z,101505.00
2019-03-19T00:32:06.666Z,101514.00
2019-03-19T00:34:37.148Z,101500.00
2019-03-19T00:37:07.915Z,101510.00
2019-03-19T00:39:39.019Z,101511.00
2019-03-19T00:42:09.976Z,101513.00
2019-03-19T00:44:40.515Z,101525.00
2019-03-19T00:47:11.003Z,101523.00
2019-03-19T00:49:41.654Z,101524.00
2019-03-19T00:52:11.853Z,101531.00
2019-03-19T00:54:42.200Z,101532.00
2019-03-19T00:57:12.403Z,101532.00
2019-03-19T00:59:42.695Z,101527.00
2019-03-19T01:02:13.387Z,101526.00
2019-03-19T01:04:43.690Z,101539.00
2019-03-19T01:07:14.285Z,101535.00
2019-03-19T01:09:44.612Z,101534.00
2019-03-19T01:12:15.266Z,101534.00
2019-03-19T01:14:45.839Z,101540.00
2019-03-19T01:17:16.477Z,101532.00
2019-03-19T01:19:46.801Z,101537.00
2019-03-19T01:22:17.384Z,101532.00
2019-03-19T01:24:48.423Z,101540.00
2019-03-19T01:27:18.969Z,101540.00
2019-03-19T01:29:57.826Z,101537.00
2019-03-19T01:32:28.307Z,101545.00
2019-03-19T01:34:58.602Z,101553.00
2019-03-19T01:37:29.351Z,101552.00
2019-03-19T01:40:00.017Z,101556.00
2019-03-19T01:42:30.630Z,101554.00
2019-03-19T01:45:00.875Z,101545.00
2019-03-19T01:47:31.175Z,101544.00
2019-03-19T01:50:01.828Z,101541.00
2019-03-19T01:52:32.153Z,101546.00
2019-03-19T01:55:02.456Z,101552.00
2019-03-19T01:57:32.983Z,101564.00
2019-03-19T02:00:03.736Z,101552.00
2019-03-19T02:02:33.959Z,101556.00
2019-03-19T02:05:04.474Z,101556.00
2019-03-19T02:07:34.705Z,101565.00
2019-03-19T02:10:05.632Z,101573.00
2019-03-19T02:12:36.059Z,101571.00
2019-03-19T02:15:07.761Z,101577.00
2019-03-19T02:17:38.104Z,101562.00
2019-03-19T02:20:11.846Z,101563.00
2019-03-19T02:22:42.249Z,101552.00
2019-03-19T02:25:13.085Z,101563.00
2019-03-19T02:27:43.794Z,101574.00
2019-03-19T02:30:14.351Z,101584.00
2019-03-19T02:32:44.653Z,101594.00
2019-03-19T02:35:15.014Z,101593.00
2019-03-19T02:37:45.244Z,101598.00
2019-03-19T02:40:17.740Z,101600.00
2019-03-19T02:42:48.281Z,101591.00
2019-03-19T02:45:18.817Z,101602.00
2019-03-19T02:47:49.295Z,101609.00
2019-03-19T02:50:19.964Z,101600.00
2019-03-19T02:52:50.438Z,101587.00
2019-03-19T02:55:21.191Z,101597.00
2019-03-19T02:57:51.510Z,101603.00
2019-03-19T03:00:21.750Z,101615.00
2019-03-19T03:02:52.035Z,101626.00
2019-03-19T03:05:22.776Z,101621.00
2019-03-19T03:07:53.039Z,101616.00
2019-03-19T03:10:24.051Z,101622.00
2019-03-19T03:12:54.929Z,101630.00
2019-03-19T03:15:25.186Z,101617.00
2019-03-19T03:17:55.452Z,101616.00
2019-03-19T03:20:25.719Z,101631.00
2019-03-19T03:22:56.256Z,101620.00
2019-03-19T03:25:26.527Z,101628.00
2019-03-19T03:27:57.398Z,101628.00
2019-03-19T03:30:30.851Z,101639.00
2019-03-19T03:33:01.162Z,101630.00
2019-03-19T03:35:31.413Z,101634.00
2019-03-19T03:38:02.197Z,101625.00
2019-03-19T03:40:32.711Z,101627.00
2019-03-19T03:43:03.013Z,101629.00
2019-03-19T03:45:33.233Z,101630.00
2019-03-19T03:48:03.655Z,101633.00
2019-03-19T03:50:34.555Z,101647.00
2019-03-19T03:53:04.886Z,101640.00
2019-03-19T03:55:36.133Z,101625.00
2019-03-19T03:58:06.557Z,101638.00
2019-03-19T04:00:37.136Z,101627.00
2019-03-19T04:03:07.420Z,101638.00
2019-03-19T04:05:37.742Z,101631.00
2019-03-19T04:08:08.357Z,101638.00
2019-03-19T04:10:39.004Z,101645.00
2019-03-19T04:13:09.522Z,101646.00
2019-03-19T04:15:39.763Z,101649.00
2019-03-19T04:18:10.052Z,101658.00
2019-03-19T04:20:41.577Z,101668.00
2019-03-19T04:23:11.703Z,101670.00
2019-03-19T04:25:42.003Z,101661.00
2019-03-19T04:28:12.349Z,101669.00
2019-03-19T04:30:42.656Z,101662.00
2019-03-19T04:33:12.930Z,101663.00
2019-03-19T04:35:43.368Z,101665.00
2019-03-19T04:38:13.887Z,101675.00
2019-03-19T04:40:49.501Z,101672.00
2019-03-19T04:43:19.714Z,101684.00
2019-03-19T04:45:50.025Z,101684.00
2019-03-19T04:48:20.161Z,101685.00
2019-03-19T04:50:50.410Z,101690.00
2019-03-19T04:53:21.169Z,101689.00
2019-03-19T04:55:51.645Z,101683.00
2019-03-19T04:58:22.175Z,101690.00
2019-03-19T05:00:52.449Z,101691.00
2019-03-19T05:03:23.850Z,101683.00
2019-03-19T05:05:54.579Z,101696.00
2019-03-19T05:08:25.057Z,101688.00
2019-03-19T05:10:55.719Z,101695.00
2019-03-19T05:13:26.460Z,101683.00
2019-03-19T05:15:56.816Z,101697.00
2019-03-19T05:18:27.455Z,101688.00
2019-03-19T05:20:57.959Z,101698.00
2019-03-19T05:23:28.238Z,101710.00
2019-03-19T05:25:58.550Z,101710.00
2019-03-19T05:28:28.757Z,101717.00
2019-03-19T05:30:59.476Z,101717.00
2019-03-19T05:33:29.797Z,101723.00
2019-03-19T05:35:59.991Z,101714.00
2019-03-19T05:38:30.971Z,101721.00
2019-03-19T05:41:01.618Z,101726.00
2019-03-19T05:43:32.216Z,101731.00
2019-03-19T05:46:03.089Z,101730.00
2019-03-19T05:48:33.407Z,101736.00
2019-03-19T05:51:04.006Z,101745.00
2019-03-19T05:53:34.331Z,101753.00
2019-03-19T05:56:04.607Z,101748.00
2019-03-19T05:58:34.697Z,101763.00
2019-03-19T06:01:05.295Z,101762.00
2019-03-19T06:03:35.467Z,101762.00
2019-03-19T06:06:06.035Z,101761.00
2019-03-19T06:08:36.896Z,101759.00
2019-03-19T06:11:07.179Z,101761.00
2019-03-19T06:13:38.039Z,101765.00
2019-03-19T06:16:09.887Z,101764.00
2019-03-19T06:18:40.701Z,101781.00
2019-03-19T06:21:11.383Z,101775.00
2019-03-19T06:23:41.521Z,101791.00
2019-03-19T06:26:11.938Z,101789.00
2019-03-19T06:28:42.547Z,101786.00
2019-03-19T06:31:12.966Z,101798.00
2019-03-19T06:33:43.318Z,101800.00
2019-03-19T06:36:13.651Z,101798.00
2019-03-19T06:38:44.168Z,101807.00
2019-03-19T06:41:14.918Z,101805.00
2019-03-19T06:43:45.188Z,101808.00
2019-03-19T06:46:15.976Z,101810.00
2019-03-19T06:48:46.442Z,101791.00
2019-03-19T06:51:17.072Z,101804.00
2019-03-19T06:53:47.272Z,101811.00
2019-03-19T06:56:18.228Z,101828.00
2019-03-19T06:58:48.606Z,101821.00
2019-03-19T07:01:21.076Z,101817.00
2019-03-19T07:03:51.873Z,101831.00
2019-03-19T07:06:24.761Z,101826.00
2019-03-19T07:08:54.642Z,101823.00
2019-03-19T07:11:25.107Z,101832.00
2019-03-19T07:13:55.336Z,101832.00
2019-03-19T07:16:25.902Z,101833.00
2019-03-19T07:18:56.239Z,101839.00
2019-03-19T07:21:26.845Z,101840.00
2019-03-19T07:23:57.285Z,101841.00
2019-03-19T07:26:27.608Z,101854.00
2019-03-19T07:28:58.177Z,101860.00
2019-03-19T07:31:31.108Z,101863.00
2019-03-19T07:34:00.722Z,101860.00
2019-03-19T07:36:31.359Z,101865.00
2019-03-19T07:39:02.090Z,101869.00
2019-03-19T07:41:32.507Z,101869.00
2019-03-19T07:44:02.707Z,101852.00
2019-03-19T07:46:33.080Z,101854.00
2019-03-19T07:49:03.392Z,101870.00
2019-03-19T07:51:33.662Z,101875.00
2019-03-19T07:54:11.276Z,101869.00
2019-03-19T07:56:41.525Z,101881.00
2019-03-19T07:59:12.766Z,101872.00
2019-03-19T08:01:43.073Z,101881.00
2019-03-19T08:04:13.596Z,101889.00
2019-03-19T08:06:43.853Z,101888.00
2019-03-19T08:09:15.195Z,101894.00
2019-03-19T08:11:46.206Z,101896.00
2019-03-19T08:14:16.989Z,101904.00
2019-03-19T08:16:47.522Z,101899.00
2019-03-19T08:19:18.148Z,101906.00
2019-03-19T08:21:48.811Z,101910.00
2019-03-19T08:24:18.958Z,101914.00
2019-03-19T08:26:49.542Z,101903.00
2019-03-19T08:29:19.869Z,101909.00
2019-03-19T08:32:01.482Z,101920.00
2019-03-19T08:34:32.097Z,101910.00
2019-03-19T08:37:02.643Z,101914.00
2019-03-19T08:39:33.156Z,101913.00
2019-03-19T08:42:03.669Z,101903.00
2019-03-19T08:44:35.209Z,101907.00
2019-03-19T08:47:05.809Z,101900.00
2019-03-19T08:49:36.210Z,101913.00
2019-03-19T08:52:06.470Z,101913.00
2019-03-19T08:54:37.107Z,101921.00
2019-03-19T08:57:07.482Z,101926.00
2019-03-19T08:59:38.087Z,101929.00
2019-03-19T09:02:08.667Z,101914.00
2019-03-19T09:04:39.185Z,101917.00
2019-03-19T09:07:09.856Z,101932.00
2019-03-19T09:09:40.742Z,101923.00
2019-03-19T09:12:10.910Z,101934.00
2019-03-19T09:14:41.267Z,101927.00
2019-03-19T09:17:11.436Z,101928.00
2019-03-19T09:19:42.246Z,101934.00
2019-03-19T09:22:12.499Z,101921.00
2019-03-19T09:24:42.760Z,101932.00
2019-03-19T09:27:12.774Z,101927.00
2019-03-19T09:29:43.654Z,101923.00
2019-03-19T09:32:13.974Z,101920.00
2019-03-19T09:34:54.395Z,101925.00
2019-03-19T09:37:24.934Z,101927.00
2019-03-19T09:39:55.247Z,101913.00
2019-03-19T09:42:25.867Z,101914.00
2019-03-19T09:44:58.717Z,101912.00
2019-03-19T09:47:28.576Z,101921.00
2019-03-19T09:49:59.120Z,101927.00
2019-03-19T09:52:29.278Z,101927.00
2019-03-19T09:55:00.774Z,101934.00
2019-03-19T09:57:32.133Z,101948.00
2019-03-19T10:00:02.543Z,101937.00
2019-03-19T10:02:32.793Z,101950.00
2019-03-19T10:05:04.258Z,101953.00
2019-03-19T10:07:34.606Z,101949.00
2019-03-19T10:10:06.061Z,101943.00
2019-03-19T10:12:36.293Z,101945.00
2019-03-19T10:15:07.906Z,101953.00
2019-03-19T10:17:38.475Z,101953.00
2019-03-19T10:20:11.645Z,101950.00
2019-03-19T10:22:42.459Z,101969.00
2019-03-19T10:25:16.110Z,101952.00
2019-03-19T10:27:46.639Z,101951.00
2019-03-19T10:30:18.589Z,101947.00
2019-03-19T10:32:49.052Z,101957.00
2019-03-19T10:35:19.359Z,101963.00
2019-03-19T10:37:50.500Z,101970.00
2019-03-19T10:40:20.836Z,101976.00
2019-03-19T10:42:51.392Z,101964.00
2019-03-19T10:45:21.734Z,101970.00
2019-03-19T10:47:52.371Z,101969.00
2019-03-19T10:50:22.861Z,101976.00
2019-03-19T10:52:53.443Z,101976.00
2019-03-19T10:55:24.098Z,101981.00
2019-03-19T10:57:54.389Z,101982.00
2019-03-19T11:00:25.331Z,101980.00
2019-03-19T11:02:56.015Z,101978.00
2019-03-19T11:05:26.453Z,101975.00
2019-03-19T11:07:56.702Z,101981.00
2019-03-19T11:10:27.273Z,101969.00
2019-03-19T11:12:57.697Z,101965.00
2019-03-19T11:15:28.089Z,101967.00
2019-03-19T11:17:58.425Z,101973.00
2019-03-19T11:20:28.688Z,101982.00
2019-03-19T11:22:59.202Z,101970.00
2019-03-19T11:25:29.521Z,101969.00
2019-03-19T11:27:59.801Z,101982.00
2019-03-19T11:30:30.170Z,101980.00
2019-03-19T11:33:00.619Z,101992.00
2019-03-19T11:35:31.063Z,101993.00
2019-03-19T11:38:03.648Z,101980.00
2019-03-19T11:40:33.876Z,101986.00
2019-03-19T11:43:04.300Z,101979.00
2019-03-19T11:45:35.108Z,101969.00
2019-03-19T11:48:05.472Z,101982.00
2019-03-19T11:50:35.778Z,101976.00
2019-03-19T11:53:07.145Z,101984.00
2019-03-19T11:55:38.801Z,101980.00
2019-03-19T11:58:09.273Z,101982.00
2019-03-19T12:00:42.288Z,101983.00
2019-03-19T12:03:16.523Z,101982.00
2019-03-19T12:05:44.667Z,101978.00
2019-03-19T12:08:15.198Z,101978.00
2019-03-19T12:10:45.665Z,101979.00
2019-03-19T12:13:16.016Z,101971.00
2019-03-19T12:15:46.600Z,101973.00
2019-03-19T12:18:19.939Z,101981.00
2019-03-19T12:20:50.365Z,101982.00
2019-03-19T12:23:20.629Z,101976.00
2019-03-19T12:25:50.842Z,101981.00
2019-03-19T12:28:21.422Z,101978.00
2019-03-19T12:30:51.710Z,101983.00
2019-03-19T12:33:21.993Z,101991.00
2019-03-19T12:35:52.370Z,101989.00
2019-03-19T12:38:22.740Z,101992.00
2019-03-19T12:40:53.061Z,101990.00
2019-03-19T12:43:23.873Z,101995.00
2019-03-19T12:45:54.134Z,101992.00
2019-03-19T12:48:24.486Z,101994.00
2019-03-19T12:50:54.918Z,101987.00
2019-03-19T12:53:25.498Z,101984.00
2019-03-19T12:55:56.240Z,101989.00
2019-03-19T12:58:26.539Z,101987.00
2019-03-19T13:00:56.836Z,101981.00
2019-03-19T13:03:27.107Z,101979.00
2019-03-19T13:05:58.366Z,101970.00
2019-03-19T13:08:28.587Z,101970.00
2019-03-19T13:10:58.951Z,101975.00
2019-03-19T13:13:29.680Z,101978.00
2019-03-19T13:15:59.802Z,101975.00
2019-03-19T13:18:30.128Z,101983.00
2019-03-19T13:21:00.627Z,101981.00
2019-03-19T13:23:31.676Z,101976.00
2019-03-19T13:26:01.934Z,101968.00
2019-03-19T13:28:33.009Z,101965.00
2019-03-19T13:31:08.061Z,101966.00
2019-03-19T13:33:38.486Z,101978.00
2019-03-19T13:36:08.923Z,101988.00
2019-03-19T13:38:39.268Z,101978.00
2019-03-19T13:41:09.611Z,101977.00
2019-03-19T13:43:40.172Z,101982.00
2019-03-19T13:46:10.785Z,101982.00
2019-03-19T13:48:41.942Z,101974.00
2019-03-19T13:51:12.503Z,101972.00
2019-03-19T13:53:43.376Z,101967.00
2019-03-19T13:56:14.046Z,101968.00
2019-03-19T13:58:44.832Z,101971.00
2019-03-19T14:01:15.400Z,101967.00
2019-03-19T14:03:45.637Z,101972.00
2019-03-19T14:06:16.107Z,101973.00
2019-03-19T14:08:50.550Z,101975.00
2019-03-19T14:11:20.903Z,101979.00
2019-03-19T14:13:51.432Z,101977.00
2019-03-19T14:16:22.022Z,101985.00
2019-03-19T14:18:52.574Z,101975.00
2019-03-19T14:21:23.204Z,101971.00
2019-03-19T14:23:53.226Z,101971.00
2019-03-19T14:26:23.808Z,101979.00
2019-03-19T14:28:54.348Z,101984.00
2019-03-19T14:31:24.590Z,101971.00
2019-03-19T14:33:54.902Z,101969.00
2019-03-19T14:36:25.591Z,101977.00
2019-03-19T14:38:56.127Z,101980.00
2019-03-19T14:41:26.704Z,101992.00
2019-03-19T14:43:57.361Z,101995.00
2019-03-19T14:46:28.086Z,101993.00
2019-03-19T14:48:58.401Z,102002.00
2019-03-19T14:51:29.165Z,102001.00
2019-03-19T14:53:59.454Z,102005.00
2019-03-19T14:56:29.780Z,102007.00
2019-03-19T14:59:00.073Z,101996.00
2019-03-19T15:01:30.429Z,102004.00
2019-03-19T15:04:01.031Z,102004.00
2019-03-19T15:06:31.320Z,101993.00
2019-03-19T15:09:01.927Z,102009.00
2019-03-19T15:11:32.433Z,102007.00
2019-03-19T15:14:02.925Z,102007.00
2019-03-19T15:16:33.475Z,102011.00
2019-03-19T15:19:03.710Z,102015.00
2019-03-19T15:21:33.985Z,102007.00
2019-03-19T15:24:04.351Z,102001.00
2019-03-19T15:26:34.816Z,102007.00
2019-03-19T15:29:05.037Z,102014.00
2019-03-19T15:31:35.315Z,102014.00
2019-03-19T15:34:05.888Z,102011.00
2019-03-19T15:36:36.144Z,102011.00
2019-03-19T15:39:08.978Z,102003.00
2019-03-19T15:41:41.264Z,102008.00
2019-03-19T15:44:11.704Z,102009.00
2019-03-19T15:46:42.234Z,102012.00
2019-03-19T15:49:12.583Z,102007.00
2019-03-19T15:51:43.109Z,102006.00
2019-03-19T15:54:13.484Z,101998.00
2019-03-19T15:56:43.825Z,102002.00
2019-03-19T15:59:14.513Z,102005.00
2019-03-19T16:01:44.734Z,101996.00
2019-03-19T16:04:15.193Z,102003.00
2019-03-19T16:06:45.536Z,101991.00
2019-03-19T16:09:16.073Z,102009.00
2019-03-19T16:11:47.520Z,102011.00
2019-03-19T16:14:17.770Z,102007.00
2019-03-19T16:16:48.114Z,102015.00
2019-03-19T16:19:18.439Z,102009.00
2019-03-19T16:21:48.622Z,102014.00
2019-03-19T16:24:19.396Z,102016.00
2019-03-19T16:26:53.360Z,102019.00
2019-03-19T16:29:25.573Z,102023.00
2019-03-19T16:31:55.732Z,102026.00
2019-03-19T16:34:25.876Z,102025.00
2019-03-19T16:36:56.311Z,102022.00
2019-03-19T16:39:26.948Z,102036.00
2019-03-19T16:41:57.173Z,102023.00
2019-03-19T16:44:27.793Z,102025.00
2019-03-19T16:46:57.927Z,102026.00
2019-03-19T16:49:28.425Z,102037.00
2019-03-19T16:51:58.622Z,102029.00
2019-03-19T16:54:29.162Z,102041.00
2019-03-19T16:56:59.428Z,102041.00
2019-03-19T16:59:29.951Z,102038.00
2019-03-19T17:02:01.772Z,102045.00
2019-03-19T17:04:32.345Z,102043.00
2019-03-19T17:07:02.617Z,102051.00
2019-03-19T17:09:32.867Z,102059.00
2019-03-19T17:12:03.270Z,102067.00
2019-03-19T17:14:33.872Z,102059.00
2019-03-19T17:17:04.117Z,102060.00
2019-03-19T17:19:37.351Z,102057.00
2019-03-19T17:22:07.719Z,102060.00
2019-03-19T17:24:38.212Z,102059.00
2019-03-19T17:27:08.870Z,102062.00
2019-03-19T17:29:39.105Z,102068.00
2019-03-19T17:32:13.119Z,102068.00
2019-03-19T17:34:48.298Z,102068.00
2019-03-19T17:37:18.626Z,102073.00
2019-03-19T17:39:49.195Z,102076.00
2019-03-19T17:42:20.546Z,102071.00
2019-03-19T17:44:51.130Z,102075.00
2019-03-19T17:47:21.411Z,102078.00
2019-03-19T17:49:51.678Z,102074.00
2019-03-19T17:52:21.977Z,102071.00
2019-03-19T17:54:52.141Z,102082.00
2019-03-19T17:57:31.236Z,102089.00
2019-03-19T18:00:01.374Z,102076.00
2019-03-19T18:02:31.856Z,102071.00
2019-03-19T18:05:02.438Z,102086.00
2019-03-19T18:07:32.561Z,102090.00
2019-03-19T18:10:02.690Z,102086.00
2019-03-19T18:12:33.244Z,102084.00
2019-03-19T18:15:03.713Z,102088.00
2019-03-19T18:17:34.369Z,102099.00
2019-03-19T18:20:06.166Z,102091.00
2019-03-19T18:22:37.003Z,102089.00
2019-03-19T18:25:12.154Z,102100.00
2019-03-19T18:27:42.560Z,102105.00
2019-03-19T18:30:15.264Z,102120.00
2019-03-19T18:32:46.167Z,102112.00
2019-03-19T18:35:16.811Z,102117.00
2019-03-19T18:37:47.364Z,102106.00
2019-03-19T18:40:18.835Z,102106.00
2019-03-19T18:42:49.176Z,102112.00
2019-03-19T18:45:19.632Z,102111.00
2019-03-19T18:47:49.979Z,102122.00
2019-03-19T18:50:21.448Z,102121.00
2019-03-19T18:52:52.440Z,102119.00
2019-03-19T18:55:22.817Z,102131.00
2019-03-19T18:57:53.132Z,102126.00
2019-03-19T19:00:23.487Z,102144.00
2019-03-19T19:02:53.979Z,102140.00
2019-03-19T19:05:24.307Z,102142.00
2019-03-19T19:07:55.244Z,102148.00
2019-03-19T19:10:25.851Z,102151.00
2019-03-19T19:12:56.216Z,102141.00
2019-03-19T19:15:26.775Z,102151.00
2019-03-19T19:17:57.152Z,102164.00
2019-03-19T19:20:27.984Z,102156.00
2019-03-19T19:22:58.303Z,102162.00
2019-03-19T19:25:28.913Z,102166.00
2019-03-19T19:27:59.681Z,102160.00
2019-03-19T19:30:30.016Z,102172.00
2019-03-19T19:33:02.551Z,102173.00
2019-03-19T19:35:32.861Z,102172.00
2019-03-19T19:38:03.671Z,102169.00
2019-03-19T19:40:34.345Z,102175.00
2019-03-19T19:43:04.680Z,102179.00
2019-03-19T19:45:34.993Z,102175.00
2019-03-19T19:48:05.295Z,102186.00
2019-03-19T19:50:35.603Z,102183.00
2019-03-19T19:53:05.953Z,102186.00
2019-03-19T19:55:36.685Z,102196.00
2019-03-19T19:58:06.976Z,102188.00
2019-03-19T20:00:37.320Z,102190.00
2019-03-19T20:03:12.124Z,102205.00
2019-03-19T20:05:39.928Z,102200.00
2019-03-19T20:08:10.821Z,102197.00
2019-03-19T20:10:41.161Z,102209.00
2019-03-19T20:13:11.464Z,102204.00
2019-03-19T20:15:42.678Z,102212.00
2019-03-19T20:18:13.269Z,102216.00
2019-03-19T20:20:43.955Z,102218.00
2019-03-19T20:23:14.564Z,102215.00
2019-03-19T20:25:45.192Z,102213.00
2019-03-19T20:28:15.779Z,102220.00
2019-03-19T20:30:46.217Z,102213.00
2019-03-19T20:33:24.710Z,102216.00
2019-03-19T20:35:49.279Z,102218.00
2019-03-19T20:38:19.631Z,102223.00
2019-03-19T20:40:51.658Z,102219.00
2019-03-19T20:43:22.466Z,102223.00
2019-03-19T20:45:53.057Z,102215.00
2019-03-19T20:48:23.406Z,102216.00
2019-03-19T20:50:54.376Z,102217.00
2019-03-19T20:53:25.279Z,102229.00
2019-03-19T20:55:55.845Z,102235.00
2019-03-19T20:58:26.103Z,102234.00
2019-03-19T21:00:56.437Z,102247.00
2019-03-19T21:03:35.458Z,102246.00
2019-03-19T21:05:59.417Z,102254.00
2019-03-19T21:08:30.058Z,102258.00
2019-03-19T21:11:00.673Z,102253.00
2019-03-19T21:13:30.926Z,102266.00
2019-03-19T21:16:01.254Z,102267.00
2019-03-19T21:18:31.627Z,102269.00
2019-03-19T21:21:01.924Z,102257.00
2019-03-19T21:23:32.572Z,102261.00
2019-03-19T21:26:02.853Z,102271.00
2019-03-19T21:28:33.924Z,102265.00
2019-03-19T21:31:04.664Z,102271.00
2019-03-19T21:33:35.056Z,102275.00
2019-03-19T21:36:05.612Z,102256.00
2019-03-19T21:38:36.120Z,102269.00
2019-03-19T21:41:06.427Z,102261.00
2019-03-19T21:43:36.747Z,102261.00
2019-03-19T21:46:07.072Z,102259.00
2019-03-19T21:48:37.786Z,102267.00
2019-03-19T21:51:08.632Z,102257.00
2019-03-19T21:53:38.857Z,102250.00
2019-03-19T21:56:09.260Z,102246.00
2019-03-19T21:58:39.615Z,102227.00
2019-03-19T22:01:10.283Z,102249.00
2019-03-19T22:03:40.615Z,102240.00
2019-03-19T22:06:10.945Z,102246.00
2019-03-19T22:08:41.161Z,102239.00
2019-03-19T22:11:12.020Z,102242.00
2019-03-19T22:13:42.252Z,102246.00
2019-03-19T22:16:14.014Z,102250.00
2019-03-19T22:18:44.338Z,102244.00
2019-03-19T22:21:14.847Z,102242.00
2019-03-19T22:23:45.183Z,102244.00
2019-03-19T22:26:16.390Z,102243.00
2019-03-19T22:28:47.008Z,102238.00
2019-03-19T22:31:17.278Z,102239.00
2019-03-19T22:33:48.033Z,102243.00
2019-03-19T22:36:18.649Z,102246.00
2019-03-19T22:38:48.883Z,102254.00
2019-03-19T22:41:19.218Z,102257.00
2019-03-19T22:43:49.735Z,102252.00
2019-03-19T22:46:21.918Z,102245.00
2019-03-19T22:48:52.718Z,102256.00
2019-03-19T22:51:23.038Z,102255.00
2019-03-19T22:53:53.315Z,102259.00
2019-03-19T22:56:23.799Z,102252.00
2019-03-19T22:58:54.155Z,102257.00
2019-03-19T23:01:24.425Z,102261.00
2019-03-19T23:03:54.927Z,102262.00
2019-03-19T23:06:25.207Z,102263.00
2019-03-19T23:10:06.859Z,102264.00
2019-03-19T23:12:37.190Z,102249.00
2019-03-19T23:16:19.026Z,102248.00
2019-03-19T23:18:49.331Z,102244.00
2019-03-19T23:21:19.943Z,102241.00
2019-03-19T23:23:50.230Z,102245.00
2019-03-19T23:26:20.572Z,102245.00
2019-03-19T23:28:50.847Z,102256.00
2019-03-19T23:31:21.755Z,102245.00
2019-03-19T23:33:52.080Z,102260.00
2019-03-19T23:36:22.374Z,102251.00
2019-03-19T23:38:52.937Z,102255.00
2019-03-19T23:41:23.443Z,102240.00
2019-03-19T23:43:54.250Z,102257.00
2019-03-19T23:46:24.585Z,102270.00
2019-03-19T23:48:54.917Z,102263.00
2019-03-19T23:51:25.229Z,102260.00
2019-03-19T23:53:55.527Z,102262.00
2019-03-19T23:56:25.803Z,102270.00
2019-03-19T23:58:56.091Z,102257.00
